Time;durP1;ratioP1;P1;durP2;ratioP2;P2;SDS_P1;SDS_P2;PMS_P1;PMS_P2;Temp;Humidity;BMP_temperature;BMP_pressure;BME280_temperature;BME280_humidity;BME280_pressure;Samples;Min_cycle;Max_cycle;Signal;HPM_P1;HPM_P2
2022/10/05 00:00:50;;;;;;;5.53;3.20;;;;;;;10.04;100.00;100889.72;6041013;29;20045;-88
2022/10/05 00:04:15;;;;;;;6.60;3.40;;;;;;;9.98;100.00;100901.31;6053221;29;20067;-88
2022/10/05 00:07:20;;;;;;;5.40;2.95;;;;;;;9.98;100.00;100903.06;6044826;29;20051;-88
2022/10/05 00:10:21;;;;;;;4.57;3.10;;;;;;;9.99;100.00;100897.81;6034095;29;20045;-88
2022/10/05 00:13:28;;;;;;;5.30;3.10;;;;;;;10.00;100.00;100896.84;6042519;29;20542;-88
2022/10/05 00:16:30;;;;;;;5.07;3.20;;;;;;;10.05;100.00;100896.53;6034634;29;20594;-88
2022/10/05 00:19:42;;;;;;;6.35;3.60;;;;;;;10.10;100.00;100889.28;6044468;29;20045;-88
2022/10/05 00:22:45;;;;;;;5.82;3.50;;;;;;;10.13;100.00;100881.28;6040754;29;20037;-88
2022/10/05 00:25:47;;;;;;;7.53;3.50;;;;;;;10.14;100.00;100876.03;6038765;29;20574;-88
2022/10/05 00:28:49;;;;;;;8.88;3.63;;;;;;;10.14;100.00;100878.59;6044107;29;20040;-88
2022/10/05 00:31:50;;;;;;;6.57;3.70;;;;;;;10.14;100.00;100885.53;6043253;29;20160;-88
2022/10/05 00:34:53;;;;;;;4.85;3.35;;;;;;;10.11;100.00;100886.59;6039784;29;20632;-88
2022/10/05 00:37:55;;;;;;;7.18;3.10;;;;;;;10.07;100.00;100877.38;6038539;29;20052;-88
2022/10/05 00:41:26;;;;;;;6.10;3.10;;;;;;;10.07;100.00;100887.72;6044822;29;20080;-88
2022/10/05 00:44:53;;;;;;;5.32;3.42;;;;;;;10.04;100.00;100875.03;6043013;29;20059;-88
2022/10/05 00:48:21;;;;;;;6.53;3.08;;;;;;;10.04;100.00;100877.63;6050808;29;20096;-88
2022/10/05 00:51:28;;;;;;;9.38;4.57;;;;;;;10.07;100.00;100874.81;6049251;29;20138;-88
2022/10/05 00:54:36;;;;;;;7.25;3.67;;;;;;;10.12;100.00;100880.47;6044961;29;20033;-88
2022/10/05 00:58:07;;;;;;;8.63;3.85;;;;;;;10.17;100.00;100874.97;6045394;29;20044;-88
2022/10/05 01:01:50;;;;;;;4.55;3.08;;;;;;;10.18;100.00;100881.78;6040474;29;20523;-88
2022/10/05 01:05:21;;;;;;;4.50;3.10;;;;;;;10.19;100.00;100867.94;6038814;29;20428;-88
2022/10/05 01:08:41;;;;;;;6.28;3.42;;;;;;;10.17;100.00;100879.31;6034468;29;20060;-88
2022/10/05 01:12:01;;;;;;;7.20;3.80;;;;;;;10.15;100.00;100871.66;6043564;29;20666;-88
2022/10/05 01:15:34;;;;;;;5.97;3.30;;;;;;;10.13;100.00;100876.13;6034372;29;20057;-88
2022/10/05 01:19:03;;;;;;;7.25;3.47;;;;;;;10.12;100.00;100866.72;6029548;29;20559;-88
2022/10/05 01:22:37;;;;;;;6.95;3.58;;;;;;;10.11;100.00;100872.81;6051141;29;20140;-88
2022/10/05 01:26:24;;;;;;;7.80;3.35;;;;;;;10.09;100.00;100864.34;6052880;29;20049;-88
2022/10/05 01:29:46;;;;;;;5.63;3.42;;;;;;;10.08;100.00;100863.50;6038202;29;20049;-88
2022/10/05 01:33:27;;;;;;;4.80;3.30;;;;;;;10.13;100.00;100865.78;6037322;29;20045;-88
2022/10/05 01:36:54;;;;;;;4.82;3.05;;;;;;;10.21;100.00;100865.22;6034845;29;20064;-88
2022/10/05 01:40:03;;;;;;;6.40;3.80;;;;;;;10.24;100.00;100857.25;6029333;29;20143;-88
2022/10/05 01:43:21;;;;;;;6.88;3.80;;;;;;;10.26;100.00;100853.63;6031300;29;20419;-88
2022/10/05 01:46:32;;;;;;;5.68;3.55;;;;;;;10.30;100.00;100847.31;6049586;29;20099;-88
2022/10/05 01:49:52;;;;;;;4.47;3.70;;;;;;;10.33;100.00;100841.06;6034668;29;20076;-88
2022/10/05 01:53:18;;;;;;;6.53;3.50;;;;;;;10.34;100.00;100832.41;6055411;29;20571;-88
2022/10/05 01:56:41;;;;;;;4.13;3.30;;;;;;;10.37;100.00;100833.94;6043817;29;20040;-88
2022/10/05 02:00:02;;;;;;;5.00;3.35;;;;;;;10.35;100.00;100842.63;6043084;29;20049;-88
2022/10/05 02:03:23;;;;;;;;;;;;;;;10.32;100.00;100840.25;6046058;29;20105;-88
2022/10/05 02:06:31;;;;;;;7.40;3.47;;;;;;;10.28;100.00;100843.19;6042025;29;20396;-88
2022/10/05 02:09:42;;;;;;;5.10;3.42;;;;;;;10.24;100.00;100831.38;6035589;29;20041;-88
2022/10/05 02:12:47;;;;;;;7.57;3.85;;;;;;;10.19;100.00;100820.56;6031022;29;20088;-88
2022/10/05 02:16:04;;;;;;;6.05;3.83;;;;;;;10.11;100.00;100814.16;6032020;29;20491;-88
2022/10/05 02:19:20;;;;;;;4.68;3.50;;;;;;;10.06;100.00;100813.69;6039400;29;20056;-88
2022/10/05 02:22:34;;;;;;;4.45;3.22;;;;;;;10.01;100.00;100815.78;6036606;29;20540;-88
2022/10/05 02:25:41;;;;;;;6.28;3.65;;;;;;;10.00;100.00;100802.94;6036135;29;20101;-88
2022/10/05 02:28:50;;;;;;;6.43;3.58;;;;;;;9.99;100.00;100802.13;6039851;29;20053;-88
2022/10/05 02:32:12;;;;;;;5.13;3.88;;;;;;;10.00;100.00;100811.50;6036105;29;20053;-88
2022/10/05 02:35:17;;;;;;;5.55;3.97;;;;;;;10.01;100.00;100807.16;6041343;29;20124;-88
2022/10/05 02:38:56;;;;;;;6.97;3.78;;;;;;;10.03;100.00;100802.72;6028086;29;20053;-88
2022/10/05 02:42:21;;;;;;;11.27;3.80;;;;;;;10.06;100.00;100805.91;6034249;29;20520;-88
2022/10/05 02:45:33;;;;;;;7.10;3.60;;;;;;;10.11;100.00;100811.59;6036784;29;20056;-88
2022/10/05 02:48:54;;;;;;;6.15;3.63;;;;;;;10.13;100.00;100816.63;6051076;29;20512;-88
2022/10/05 02:52:28;;;;;;;8.85;3.70;;;;;;;10.12;100.00;100800.28;6039520;29;20093;-88
2022/10/05 02:56:09;;;;;;;4.80;3.70;;;;;;;10.12;100.00;100781.34;6038733;29;20037;-88
2022/10/05 02:59:46;;;;;;;5.88;3.72;;;;;;;10.08;100.00;100782.50;5966597;29;20053;-88
2022/10/05 03:03:13;;;;;;;4.10;3.35;;;;;;;10.00;100.00;100783.06;5988019;29;20072;-88
2022/10/05 03:06:26;;;;;;;7.60;3.85;;;;;;;9.96;100.00;100780.81;5987957;29;20050;-88
2022/10/05 03:09:36;;;;;;;5.20;3.80;;;;;;;9.92;100.00;100780.22;5982666;29;20375;-88
2022/10/05 03:13:01;;;;;;;7.50;3.95;;;;;;;9.89;100.00;100781.28;5993377;29;20450;-88
2022/10/05 03:16:21;;;;;;;6.75;4.07;;;;;;;9.87;100.00;100787.47;5975128;29;20133;-88
2022/10/05 03:19:54;;;;;;;6.80;3.97;;;;;;;9.86;100.00;100784.09;5995586;29;20149;-88
2022/10/05 03:23:00;;;;;;;6.20;3.70;;;;;;;9.88;100.00;100784.78;5911817;30;20058;-88
2022/10/05 03:26:21;;;;;;;6.10;3.92;;;;;;;9.93;100.00;100790.44;5916830;30;20089;-88
2022/10/05 03:29:39;;;;;;;9.10;4.38;;;;;;;9.96;100.00;100781.63;5911173;30;20737;-88
2022/10/05 03:33:02;;;;;;;5.97;3.78;;;;;;;9.99;100.00;100781.44;5898216;30;20544;-88
2022/10/05 03:36:21;;;;;;;6.05;4.15;;;;;;;10.01;100.00;100776.97;5915506;29;20055;-88
2022/10/05 03:39:45;;;;;;;6.40;4.20;;;;;;;10.05;100.00;100762.06;5937338;29;20082;-88
2022/10/05 03:43:20;;;;;;;9.90;4.00;;;;;;;10.05;100.00;100755.09;5935075;29;20047;-88
2022/10/05 03:46:41;;;;;;;6.13;4.30;;;;;;;10.09;100.00;100745.38;5951447;29;20058;-88
2022/10/05 03:50:06;;;;;;;6.45;4.07;;;;;;;10.06;100.00;100743.00;5937901;29;20554;-88
2022/10/05 03:53:18;;;;;;;6.88;4.20;;;;;;;10.03;100.00;100748.41;5937306;29;20204;-88
2022/10/05 03:56:57;;;;;;;4.68;4.15;;;;;;;9.98;100.00;100740.97;5952610;29;20087;-88
2022/10/05 04:00:05;;;;;;;5.85;3.80;;;;;;;9.99;100.00;100744.41;5883644;30;20062;-88
2022/10/05 04:03:46;;;;;;;8.77;4.28;;;;;;;9.96;100.00;100742.84;5926627;30;20083;-88
2022/10/05 04:06:51;;;;;;;9.60;4.20;;;;;;;9.96;100.00;100731.69;5914706;30;20055;-88
2022/10/05 04:09:54;;;;;;;9.00;4.07;;;;;;;9.97;100.00;100717.84;5928936;30;20054;-88
2022/10/05 04:13:14;;;;;;;5.97;4.18;;;;;;;9.98;100.00;100715.13;5930641;30;20079;-88
2022/10/05 04:16:19;;;;;;;10.27;4.32;;;;;;;10.02;100.00;100705.38;5938790;29;20055;-88
2022/10/05 04:19:23;;;;;;;7.55;4.32;;;;;;;10.02;100.00;100708.78;5929582;30;20055;-88
2022/10/05 04:22:58;;;;;;;9.00;4.43;;;;;;;10.04;100.00;100706.09;5928809;29;20055;-87
2022/10/05 04:26:32;;;;;;;8.32;4.40;;;;;;;10.04;100.00;100712.09;5911731;30;20051;-88
2022/10/05 04:30:07;;;;;;;5.82;4.30;;;;;;;10.03;100.00;100705.25;5902139;30;20166;-88
2022/10/05 04:33:14;;;;;;;10.05;4.63;;;;;;;9.99;100.00;100706.44;5907030;30;20189;-88
2022/10/05 04:36:35;;;;;;;6.35;4.10;;;;;;;9.95;100.00;100699.84;5929071;29;20049;-88
2022/10/05 04:39:55;;;;;;;8.68;4.40;;;;;;;9.89;100.00;100680.44;6020616;29;20105;-88
2022/10/05 04:43:39;;;;;;;7.47;4.50;;;;;;;9.86;100.00;100684.97;6006806;29;20041;-88
2022/10/05 04:47:18;;;;;;;9.50;4.30;;;;;;;9.85;100.00;100686.75;6014663;29;20480;-88
2022/10/05 04:50:43;;;;;;;8.88;4.25;;;;;;;9.83;100.00;100691.19;6018769;29;20055;-88
2022/10/05 04:54:04;;;;;;;5.55;4.00;;;;;;;9.79;100.00;100691.53;5993826;29;20108;-88
2022/10/05 04:57:12;;;;;;;6.93;4.45;;;;;;;9.78;100.00;100684.72;6017559;29;20524;-88
2022/10/05 05:00:21;;;;;;;6.65;4.22;;;;;;;9.73;100.00;100689.41;6003361;29;20413;-88
2022/10/05 05:03:45;;;;;;;8.23;4.40;;;;;;;9.71;100.00;100694.69;6026309;29;20408;-88
2022/10/05 05:07:09;;;;;;;4.57;4.13;;;;;;;9.68;100.00;100694.91;6028148;29;20049;-88
2022/10/05 05:10:33;;;;;;;9.20;4.40;;;;;;;9.64;100.00;100683.16;6054056;29;20389;-88
2022/10/05 05:13:46;;;;;;;8.13;4.60;;;;;;;9.62;100.00;100685.03;6044241;29;20644;-88
2022/10/05 05:17:16;;;;;;;8.15;4.55;;;;;;;9.62;100.00;100693.59;6044890;29;20045;-88
2022/10/05 05:20:39;;;;;;;6.27;4.33;;;;;;;9.64;100.00;100694.31;6025562;29;20049;-88
2022/10/05 05:24:19;;;;;;;7.72;4.68;;;;;;;9.65;100.00;100698.53;6041568;29;20527;-88
2022/10/05 05:27:38;;;;;;;8.00;4.82;;;;;;;9.65;100.00;100697.72;6025327;29;20164;-88
2022/10/05 05:30:41;;;;;;;7.40;4.30;;;;;;;9.68;100.00;100700.91;6041373;29;20524;-88
2022/10/05 05:34:02;;;;;;;7.85;4.57;;;;;;;9.70;100.00;100711.97;6046962;29;20566;-88
2022/10/05 05:37:34;;;;;;;8.23;5.45;;;;;;;9.75;100.00;100710.81;6025764;29;20060;-88
2022/10/05 05:40:50;;;;;;;8.93;5.53;;;;;;;9.84;100.00;100729.06;6039171;29;20065;-88
2022/10/05 05:44:10;;;;;;;9.43;5.10;;;;;;;9.86;100.00;100722.03;6038514;29;20048;-88
2022/10/05 05:47:39;;;;;;;8.88;5.35;;;;;;;9.97;100.00;100720.41;6026307;29;20083;-88
2022/10/05 05:50:41;;;;;;;8.02;4.78;;;;;;;10.03;100.00;100714.78;6040184;29;20049;-88
2022/10/05 05:53:49;;;;;;;11.85;4.88;;;;;;;10.02;100.00;100718.31;6027786;29;20799;-88
2022/10/05 05:57:27;;;;;;;7.57;4.90;;;;;;;10.02;100.00;100719.13;6027711;29;20625;-88
2022/10/05 06:00:38;;;;;;;12.45;5.60;;;;;;;9.98;100.00;100727.22;6043430;29;20060;-88
2022/10/05 06:03:48;;;;;;;6.90;4.55;;;;;;;9.97;100.00;100712.66;6028092;29;20045;-88
2022/10/05 06:06:53;;;;;;;8.70;5.47;;;;;;;9.98;100.00;100715.13;6037823;29;20041;-88
2022/10/05 06:10:32;;;;;;;9.95;5.05;;;;;;;9.98;100.00;100714.28;6042983;29;20053;-88
2022/10/05 06:13:41;;;;;;;8.50;4.70;;;;;;;9.98;100.00;100709.94;6041119;29;20327;-88
2022/10/05 06:16:52;;;;;;;9.57;5.60;;;;;;;10.01;100.00;100709.75;6045540;29;20382;-88
2022/10/05 06:19:57;;;;;;;10.00;5.38;;;;;;;10.08;100.00;100710.09;6040432;29;20147;-88
2022/10/05 06:23:31;;;;;;;12.23;5.72;;;;;;;10.18;100.00;100707.66;6041934;29;20049;-88
2022/10/05 06:26:39;;;;;;;10.05;5.40;;;;;;;10.22;100.00;100709.91;5971311;29;20051;-88
2022/10/05 06:30:03;;;;;;;6.80;4.60;;;;;;;10.28;100.00;100713.81;5978353;29;20092;-88
2022/10/05 06:33:47;;;;;;;10.23;5.50;;;;;;;10.31;100.00;100703.22;5974487;29;20149;-88
2022/10/05 06:37:10;;;;;;;8.45;5.03;;;;;;;10.43;100.00;100714.44;5946525;29;20046;-88
2022/10/05 06:41:04;;;;;;;9.63;5.28;;;;;;;10.58;100.00;100713.25;5974907;29;20046;-88
2022/10/05 06:44:30;;;;;;;6.80;5.15;;;;;;;10.77;100.00;100707.50;5884660;30;20097;-88
2022/10/05 06:48:22;;;;;;;11.10;5.55;;;;;;;10.94;100.00;100714.81;5887516;30;20416;-88
2022/10/05 06:52:21;;;;;;;7.45;4.97;;;;;;;11.27;100.00;100707.91;5895248;30;20125;-88
2022/10/05 06:55:48;;;;;;;7.50;5.07;;;;;;;11.59;100.00;100709.72;5891789;30;20070;-88
2022/10/05 06:58:56;;;;;;;10.10;4.82;;;;;;;11.88;100.00;100716.97;5884706;30;20063;-88
2022/10/05 07:02:34;;;;;;;7.97;5.10;;;;;;;12.16;100.00;100711.16;5871241;30;20064;-88
2022/10/05 07:05:44;;;;;;;7.65;4.85;;;;;;;12.33;100.00;100711.53;5910861;30;20059;-88
2022/10/05 07:09:20;;;;;;;8.93;4.90;;;;;;;12.44;100.00;100714.03;5909141;30;20144;-88
2022/10/05 07:13:04;;;;;;;8.00;5.28;;;;;;;12.59;100.00;100711.94;5893900;30;20048;-88
2022/10/05 07:16:44;;;;;;;6.70;4.80;;;;;;;12.78;100.00;100711.19;5843377;30;20065;-88
2022/10/05 07:19:48;;;;;;;6.82;4.72;;;;;;;13.00;100.00;100720.56;5865031;30;20147;-88
2022/10/05 07:23:40;;;;;;;7.82;4.95;;;;;;;13.10;100.00;100711.84;5870322;30;20057;-89
2022/10/05 07:26:49;;;;;;;9.60;4.85;;;;;;;13.01;100.00;100715.22;5887460;30;20064;-88
2022/10/05 07:30:00;;;;;;;9.63;5.43;;;;;;;12.93;100.00;100715.88;5872375;30;20079;-88
2022/10/05 07:33:23;;;;;;;8.05;4.80;;;;;;;12.92;100.00;100716.84;5882538;30;21199;-88
2022/10/05 07:40:14;;;;;;;8.88;5.60;;;;;;;13.02;100.00;100709.09;5877897;30;20415;-88
2022/10/05 07:43:41;;;;;;;8.75;4.95;;;;;;;13.01;100.00;100715.22;5952888;29;20051;-88
2022/10/05 07:47:16;;;;;;;8.90;4.72;;;;;;;13.03;100.00;100713.31;5941969;29;20285;-88
2022/10/05 07:50:30;;;;;;;10.00;5.47;;;;;;;13.08;100.00;100711.16;5936603;29;20112;-88
2022/10/05 07:53:46;;;;;;;7.90;5.47;;;;;;;13.05;100.00;100710.59;5996648;29;20046;-88
2022/10/05 07:56:59;;;;;;;9.02;4.97;;;;;;;12.93;100.00;100715.06;6018337;29;20053;-88
2022/10/05 08:00:04;;;;;;;9.48;5.07;;;;;;;12.78;100.00;100704.22;6018555;29;20065;-88
2022/10/05 08:03:22;;;;;;;8.48;5.90;;;;;;;12.74;100.00;100709.81;6029594;29;20576;-88
2022/10/05 08:06:44;;;;;;;7.15;5.20;;;;;;;12.68;100.00;100718.94;6054162;29;20049;-88
2022/10/05 08:10:02;;;;;;;9.07;5.88;;;;;;;12.71;100.00;100711.69;6046725;29;20045;-88
2022/10/05 08:13:18;;;;;;;9.23;5.18;;;;;;;12.88;100.00;100706.84;6041762;29;20045;-89
2022/10/05 08:16:25;;;;;;;7.57;5.15;;;;;;;13.18;100.00;100711.19;6036499;29;20096;-88
2022/10/05 08:19:47;;;;;;;9.98;5.57;;;;;;;13.45;100.00;100713.16;6039808;29;20058;-88
2022/10/05 08:23:14;;;;;;;9.52;5.63;;;;;;;13.68;100.00;100716.31;6047849;29;20045;-88
2022/10/05 08:26:47;;;;;;;5.40;4.43;;;;;;;13.75;100.00;100719.22;6041386;29;20037;-88
2022/10/05 08:30:09;;;;;;;9.45;5.43;;;;;;;13.72;100.00;100722.09;6059966;29;20045;-88
2022/10/05 08:33:16;;;;;;;6.80;5.22;;;;;;;13.75;100.00;100730.44;6047583;29;20037;-88
2022/10/05 08:36:27;;;;;;;8.80;5.20;;;;;;;13.63;100.00;100717.69;6039217;29;20563;-88
2022/10/05 08:39:37;;;;;;;9.60;5.35;;;;;;;13.54;100.00;100721.97;6044174;29;20047;-88
2022/10/05 08:42:57;;;;;;;9.00;4.80;;;;;;;13.51;100.00;100720.41;6045754;29;20564;-88
2022/10/05 08:46:36;;;;;;;7.18;4.95;;;;;;;13.55;100.00;100718.38;6054526;29;20453;-88
2022/10/05 08:50:06;;;;;;;7.13;4.93;;;;;;;13.55;100.00;100727.00;6052775;29;20060;-88
2022/10/05 08:53:45;;;;;;;13.75;6.78;;;;;;;13.61;100.00;100730.00;6047089;29;20462;-88
2022/10/05 08:57:10;;;;;;;8.30;4.82;;;;;;;13.71;100.00;100725.63;6051210;29;20534;-88
2022/10/05 09:00:49;;;;;;;12.70;5.25;;;;;;;13.81;100.00;100726.44;6030155;29;20183;-88
2022/10/05 09:03:58;;;;;;;11.13;4.75;;;;;;;13.96;100.00;100735.50;6050688;29;20044;-88
2022/10/05 09:07:34;;;;;;;6.55;4.47;;;;;;;14.13;100.00;100733.16;6043441;29;20056;-88
2022/10/05 09:11:02;;;;;;;7.40;4.82;;;;;;;14.38;100.00;100743.00;6051455;29;20059;-88
2022/10/05 09:14:40;;;;;;;6.85;4.68;;;;;;;14.52;100.00;100728.69;6043383;29;20826;-88
2022/10/05 09:18:04;;;;;;;6.50;4.60;;;;;;;14.70;100.00;100727.97;6044148;29;20072;-88
2022/10/05 09:21:23;;;;;;;6.90;4.93;;;;;;;14.85;100.00;100729.94;6038066;29;20056;-88
2022/10/05 09:24:47;;;;;;;8.82;4.63;;;;;;;15.04;100.00;100728.25;6042322;29;20049;-88
2022/10/05 09:28:03;;;;;;;7.50;4.35;;;;;;;15.08;100.00;100730.41;6055103;29;20468;-88
2022/10/05 09:31:21;;;;;;;7.18;4.18;;;;;;;15.18;100.00;100730.38;6042495;29;20101;-88
2022/10/05 09:34:50;;;;;;;6.43;4.78;;;;;;;15.32;100.00;100734.25;6038360;29;20429;-88
2022/10/05 09:38:30;;;;;;;7.47;4.40;;;;;;;15.43;100.00;100731.44;6043212;29;20349;-88
2022/10/05 09:42:00;;;;;;;6.68;4.43;;;;;;;15.59;100.00;100737.78;6037118;29;20057;-87
2022/10/05 09:45:39;;;;;;;7.57;4.20;;;;;;;15.76;100.00;100738.78;6038880;29;20069;-87
2022/10/05 09:49:11;;;;;;;7.80;4.00;;;;;;;15.78;100.00;100744.69;6030662;29;20605;-87
2022/10/05 09:52:50;;;;;;;5.85;3.95;;;;;;;15.82;100.00;100739.00;6034873;29;20132;-87
2022/10/05 09:56:11;;;;;;;5.90;3.95;;;;;;;15.86;100.00;100735.13;6041051;29;20044;-87
2022/10/05 09:59:55;;;;;;;4.75;3.60;;;;;;;15.78;100.00;100737.66;6038519;29;20053;-86
2022/10/05 10:03:12;;;;;;;3.97;3.15;;;;;;;15.77;100.00;100730.78;6043838;29;20045;-87
2022/10/05 10:06:20;;;;;;;4.65;3.35;;;;;;;15.72;100.00;100730.44;6036189;29;20063;-87
2022/10/05 10:09:59;;;;;;;4.75;3.75;;;;;;;15.70;100.00;100730.59;6043014;29;20420;-87
2022/10/05 10:13:15;;;;;;;5.55;3.95;;;;;;;15.67;100.00;100730.03;6044290;29;20049;-87
2022/10/05 10:16:29;;;;;;;5.07;3.15;;;;;;;15.66;100.00;100734.44;6032875;29;20500;-87
2022/10/05 10:20:05;;;;;;;6.80;3.70;;;;;;;15.56;100.00;100733.69;6042959;29;20198;-87
2022/10/05 10:23:07;;;;;;;5.05;3.50;;;;;;;15.45;100.00;100731.28;6035719;29;20118;-88
2022/10/05 10:26:10;;;;;;;4.78;3.60;;;;;;;15.36;100.00;100727.78;6042678;29;20037;-87
2022/10/05 10:29:47;;;;;;;5.55;4.20;;;;;;;15.28;100.00;100727.69;6037492;29;20432;-88
2022/10/05 10:33:12;;;;;;;4.45;3.38;;;;;;;15.20;100.00;100733.63;6015399;29;20433;-87
2022/10/05 10:37:00;;;;;;;4.78;3.45;;;;;;;15.23;100.00;100725.53;6018670;29;20118;-87
2022/10/05 10:40:35;;;;;;;4.18;3.55;;;;;;;15.19;100.00;100731.19;6017648;29;20054;-87
2022/10/05 10:44:09;;;;;;;4.90;3.80;;;;;;;15.12;100.00;100727.50;6016943;29;20444;-87
2022/10/05 10:47:32;;;;;;;5.65;3.80;;;;;;;15.19;100.00;100731.19;5970364;29;20569;-87
2022/10/05 10:50:49;;;;;;;7.13;4.18;;;;;;;15.24;100.00;100716.72;5972803;29;20046;-86
2022/10/05 10:54:11;;;;;;;4.93;3.75;;;;;;;15.35;100.00;100720.09;5963412;29;20066;-87
2022/10/05 10:57:38;;;;;;;3.92;3.50;;;;;;;15.57;100.00;100714.44;5969148;29;20134;-87
2022/10/05 11:01:11;;;;;;;4.50;3.58;;;;;;;15.78;100.00;100713.38;5972072;29;20093;-87
2022/10/05 11:04:35;;;;;;;3.63;3.03;;;;;;;15.99;100.00;100708.63;5882654;30;20070;-87
2022/10/05 11:08:06;;;;;;;3.83;3.38;;;;;;;16.17;100.00;100699.94;5879000;30;20746;-87
2022/10/05 11:11:08;;;;;;;4.82;3.10;;;;;;;16.39;100.00;100704.63;5900204;30;20595;-87
2022/10/05 11:14:28;;;;;;;4.20;3.08;;;;;;;16.63;100.00;100693.50;5889350;30;20138;-87
2022/10/05 11:17:51;;;;;;;3.58;3.08;;;;;;;16.96;96.35;100693.66;5899237;30;20057;-86
2022/10/05 11:21:01;;;;;;;4.50;2.78;;;;;;;17.20;96.01;100685.88;5904070;30;20064;-87
2022/10/05 11:24:24;;;;;;;3.97;3.17;;;;;;;17.37;95.76;100684.13;5917701;29;20140;-87
2022/10/05 11:27:34;;;;;;;4.60;3.00;;;;;;;17.49;94.86;100681.16;5917301;29;20093;-87
2022/10/05 11:31:04;;;;;;;3.05;2.83;;;;;;;17.52;93.88;100679.06;5918599;29;20410;-87
2022/10/05 11:34:31;;;;;;;3.75;3.17;;;;;;;17.65;93.64;100674.13;5920834;29;20060;-87
2022/10/05 11:37:56;;;;;;;3.50;3.20;;;;;;;17.92;93.45;100669.59;5915758;29;20667;-87
2022/10/05 11:41:26;;;;;;;3.90;2.90;;;;;;;18.08;90.42;100655.63;5980739;29;20064;-87
2022/10/05 11:45:07;;;;;;;4.72;3.28;;;;;;;18.40;91.32;100657.34;6037527;29;20036;-87
2022/10/05 11:48:12;;;;;;;;;;;;;;;18.55;87.87;100649.59;6030700;29;20057;-86
2022/10/05 11:51:22;;;;;;;3.92;3.17;;;;;;;18.64;87.54;100643.34;6047357;29;19927;-87
2022/10/05 11:54:36;;;;;;;3.17;2.88;;;;;;;18.57;87.31;100641.56;6049258;29;20136;-87
2022/10/05 11:58:08;;;;;;;3.22;2.92;;;;;;;18.59;87.64;100644.84;6041396;29;20052;-87
2022/10/05 12:01:16;;;;;;;3.35;3.00;;;;;;;18.66;89.18;100630.06;6038567;29;20045;-86
2022/10/05 12:04:41;;;;;;;4.13;3.00;;;;;;;18.70;86.26;100624.28;6045422;29;20729;-86
2022/10/05 12:08:14;;;;;;;3.83;3.47;;;;;;;18.81;86.62;100619.69;6051535;29;20040;-86
2022/10/05 12:11:54;;;;;;;4.85;3.08;;;;;;;18.81;86.24;100615.25;6052145;29;20052;-87
2022/10/05 12:15:22;;;;;;;3.17;2.75;;;;;;;18.90;86.49;100606.31;6056611;29;20045;-86
2022/10/05 12:19:03;;;;;;;3.47;2.80;;;;;;;19.01;84.68;100610.38;6051227;29;20116;-86
2022/10/05 12:22:20;;;;;;;3.40;3.00;;;;;;;19.17;83.76;100598.13;6043462;29;20053;-86
2022/10/05 12:26:00;;;;;;;3.92;2.60;;;;;;;19.23;84.65;100598.25;6043409;29;20068;-86
2022/10/05 12:29:14;;;;;;;5.35;2.90;;;;;;;19.47;83.87;100594.59;6034433;29;20052;-86
2022/10/05 12:32:22;;;;;;;3.72;2.45;;;;;;;19.63;83.37;100591.00;6033062;29;20044;-86
2022/10/05 12:35:30;;;;;;;2.70;2.22;;;;;;;19.77;82.15;100584.16;6032836;29;20119;-87
2022/10/05 12:39:28;;;;;;;3.03;2.17;;;;;;;19.91;80.90;100583.38;6030128;29;20053;-86
2022/10/05 12:42:56;;;;;;;4.50;2.10;;;;;;;19.70;81.72;100573.56;6035667;29;20162;-86
2022/10/05 12:46:28;;;;;;;6.50;2.17;;;;;;;19.72;81.54;100566.31;5985377;29;20478;-86
2022/10/05 12:50:00;;;;;;;3.92;2.20;;;;;;;19.68;80.13;100565.06;5980980;29;20061;-86
2022/10/05 12:53:33;;;;;;;3.13;2.30;;;;;;;19.33;81.32;100562.06;5980903;29;20065;-86
2022/10/05 12:56:41;;;;;;;3.03;2.33;;;;;;;19.29;81.66;100558.16;5985136;29;20064;-86
2022/10/05 13:00:12;;;;;;;4.45;1.90;;;;;;;19.21;82.69;100547.75;5985361;29;20102;-88
2022/10/05 13:03:24;;;;;;;2.33;2.00;;;;;;;19.17;81.38;100550.91;5980295;29;20054;-87
2022/10/05 13:06:50;;;;;;;2.97;1.90;;;;;;;18.94;82.79;100552.53;5980984;29;20066;-87
2022/10/05 13:09:51;;;;;;;2.08;1.80;;;;;;;18.82;84.66;100553.13;5981673;29;20062;-86
2022/10/05 13:12:56;;;;;;;2.00;1.80;;;;;;;19.06;83.62;100547.69;5980810;29;20054;-87
2022/10/05 13:16:33;;;;;;;1.83;1.73;;;;;;;19.15;82.37;100538.78;5981590;29;20133;-87
2022/10/05 13:19:45;;;;;;;2.33;1.83;;;;;;;19.22;82.00;100538.06;5982374;29;20053;-87
2022/10/05 13:23:12;;;;;;;2.78;1.58;;;;;;;19.26;82.63;100534.09;6021387;29;20067;-86
2022/10/05 13:26:14;;;;;;;2.50;1.60;;;;;;;19.28;80.61;100535.53;6024995;29;20060;-86
2022/10/05 13:29:55;;;;;;;2.72;1.70;;;;;;;19.40;82.30;100538.53;6031285;29;20152;-86
2022/10/05 13:33:01;;;;;;;;;;;;;;;19.54;79.48;100536.94;6024880;29;20053;-87
2022/10/05 13:36:08;;;;;;;2.25;1.77;;;;;;;19.56;78.94;100532.31;6020916;29;20022;-86
2022/10/05 13:39:51;;;;;;;2.75;1.88;;;;;;;19.58;81.35;100525.91;6026712;29;20045;-87
2022/10/05 13:43:05;;;;;;;3.05;1.65;;;;;;;19.69;79.06;100524.66;6029858;29;20053;-86
2022/10/05 13:46:35;;;;;;;2.78;1.80;;;;;;;19.71;78.18;100537.63;6036274;29;20053;-87
2022/10/05 13:49:58;;;;;;;1.98;1.83;;;;;;;19.58;77.15;100512.78;6033301;29;20530;-86
2022/10/05 13:53:22;;;;;;;3.25;1.50;;;;;;;19.57;79.25;100508.50;6029746;29;20050;-87
2022/10/05 13:56:29;;;;;;;2.35;1.63;;;;;;;19.57;76.88;100505.88;6013454;29;20116;-86
2022/10/05 13:59:37;;;;;;;2.53;1.52;;;;;;;19.46;76.46;100495.81;6023280;29;20078;-86
2022/10/05 14:02:42;;;;;;;1.50;1.40;;;;;;;19.47;76.43;100494.00;6029363;29;20057;-86
2022/10/05 14:05:55;;;;;;;2.47;1.85;;;;;;;19.52;76.35;100484.59;6039801;29;20129;-87
2022/10/05 14:08:57;;;;;;;3.63;1.73;;;;;;;19.59;76.56;100475.00;6036228;29;20177;-86
2022/10/05 14:12:12;;;;;;;1.98;1.52;;;;;;;19.62;76.92;100478.25;6043402;29;20522;-86
2022/10/05 14:15:28;;;;;;;2.20;1.70;;;;;;;19.65;76.55;100468.22;6037792;29;20424;-86
2022/10/05 14:18:35;;;;;;;2.42;1.77;;;;;;;19.66;76.30;100471.66;6038057;29;20052;-86
2022/10/05 14:22:10;;;;;;;2.15;1.52;;;;;;;19.70;77.28;100478.19;6037880;29;20048;-86
2022/10/05 14:25:16;;;;;;;6.47;1.67;;;;;;;19.69;80.13;100468.69;6032081;29;20057;-86
2022/10/05 14:28:30;;;;;;;2.08;1.58;;;;;;;19.66;80.26;100463.78;6037873;29;20056;-86
2022/10/05 14:31:35;;;;;;;1.58;1.48;;;;;;;19.65;79.85;100465.59;6042125;29;20460;-87
2022/10/05 14:34:55;;;;;;;2.22;1.67;;;;;;;19.67;80.80;100462.78;6034666;29;20065;-86
2022/10/05 14:37:59;;;;;;;3.47;2.00;;;;;;;19.71;80.17;100456.19;6035555;29;20416;-86
2022/10/05 14:41:10;;;;;;;4.82;2.20;;;;;;;19.62;80.62;100439.69;6039544;29;20131;-86
2022/10/05 14:44:12;;;;;;;4.47;2.00;;;;;;;19.59;80.68;100440.84;6032476;29;20501;-86
2022/10/05 14:47:21;;;;;;;3.92;2.03;;;;;;;19.58;81.96;100430.56;6035695;29;20070;-86
2022/10/05 14:50:25;;;;;;;2.60;2.40;;;;;;;19.48;82.02;100427.41;6041485;29;20151;-87
2022/10/05 14:53:42;;;;;;;2.60;2.17;;;;;;;19.40;81.38;100425.66;6041432;29;20052;-86
2022/10/05 14:56:52;;;;;;;3.17;2.50;;;;;;;19.35;82.29;100420.97;6042805;29;21249;-87
2022/10/05 15:00:13;;;;;;;3.53;2.50;;;;;;;19.29;82.99;100410.38;6044071;29;20045;-86
2022/10/05 15:03:36;;;;;;;3.35;2.55;;;;;;;19.23;83.86;100416.31;6043607;29;20492;-87
2022/10/05 15:07:09;;;;;;;3.58;2.28;;;;;;;19.16;84.92;100413.63;6039557;29;20053;-86
2022/10/05 15:10:36;;;;;;;2.47;2.00;;;;;;;19.10;86.03;100409.09;6041544;29;21260;-86
2022/10/05 15:13:42;;;;;;;2.05;1.85;;;;;;;19.03;86.13;100405.53;6040747;29;20061;-86
2022/10/05 15:16:44;;;;;;;3.03;2.20;;;;;;;18.94;86.95;100408.25;6038421;29;20045;-85
2022/10/05 15:20:16;;;;;;;1.77;1.67;;;;;;;18.88;85.96;100401.13;6040374;29;20091;-86
2022/10/05 15:23:39;;;;;;;2.65;1.63;;;;;;;18.77;86.44;100413.84;6038750;29;20147;-86
2022/10/05 15:27:03;;;;;;;2.10;1.85;;;;;;;18.69;87.38;100407.63;6035910;29;20105;-86
2022/10/05 15:30:12;;;;;;;2.53;1.98;;;;;;;18.63;87.75;100397.88;6033838;29;20042;-86
2022/10/05 15:33:30;;;;;;;4.15;1.95;;;;;;;18.50;89.03;100393.19;6034943;29;20096;-86